createdAt,value
2018-12-27T00:00:20.538Z,8.26
2018-12-27T00:01:20.104Z,8.23
2018-12-27T00:02:34.780Z,8.29
2018-12-27T00:03:20.137Z,8.23
2018-12-27T00:04:20.154Z,8.22
2018-12-27T00:05:20.169Z,8.23
2018-12-27T00:06:20.185Z,8.28
2018-12-27T00:07:20.198Z,8.29
2018-12-27T00:08:20.220Z,8.16
2018-12-27T00:09:20.234Z,8.25
2018-12-27T00:11:20.268Z,8.19
2018-12-27T00:14:20.325Z,8.1
2018-12-27T00:15:20.330Z,8
2018-12-27T00:16:20.353Z,8.07
2018-12-27T00:17:20.366Z,8.19
2018-12-27T00:18:35.045Z,8.12
2018-12-27T00:19:20.398Z,8.22
2018-12-27T00:20:20.418Z,8.15
2018-12-27T00:21:20.432Z,8.15
2018-12-27T00:22:20.447Z,8.08
2018-12-27T00:23:20.463Z,8.12
2018-12-27T00:24:20.480Z,8.12
2018-12-27T00:25:20.614Z,8.05
2018-12-27T00:26:20.514Z,8.08
2018-12-27T00:27:20.533Z,8.08
2018-12-27T00:28:20.548Z,8.07
2018-12-27T00:29:20.562Z,8.1
2018-12-27T00:30:20.668Z,8.12
2018-12-27T00:31:35.259Z,8.08
2018-12-27T00:32:20.619Z,8.16
2018-12-27T00:33:20.631Z,8.08
2018-12-27T00:34:35.308Z,8.1
2018-12-27T00:35:20.662Z,8.1
2018-12-27T00:36:20.680Z,8.04
2018-12-27T00:37:20.698Z,8.05
2018-12-27T00:38:20.713Z,8.11
2018-12-27T00:39:20.728Z,8.11
2018-12-27T00:40:20.745Z,8.19
2018-12-27T00:41:20.761Z,8.12
2018-12-27T00:42:20.777Z,8.15
2018-12-27T00:43:20.796Z,8.08
2018-12-27T00:44:20.811Z,8.15
2018-12-27T00:45:20.831Z,8.04
2018-12-27T00:46:20.852Z,8.01
2018-12-27T00:47:20.874Z,8.1
2018-12-27T00:48:20.877Z,8
2018-12-27T00:49:35.558Z,8.1
2018-12-27T00:50:20.919Z,8.07
2018-12-27T00:51:20.927Z,8.1
2018-12-27T00:52:20.957Z,8.07
2018-12-27T00:53:21.042Z,8.04
2018-12-27T00:54:20.980Z,8.08
2018-12-27T00:55:20.993Z,8.07
2018-12-27T00:56:21.008Z,8.05
2018-12-27T01:00:21.165Z,8.04
2018-12-27T01:01:21.091Z,8.04
2018-12-27T01:02:21.110Z,8.08
2018-12-27T01:03:21.125Z,8.15
2018-12-27T01:04:21.141Z,8.04
2018-12-27T01:05:21.159Z,8.1
2018-12-27T01:06:21.275Z,8.11
2018-12-27T01:07:21.192Z,8.07
2018-12-27T01:08:21.208Z,8.16
2018-12-27T01:09:21.223Z,8.1
2018-12-27T01:10:21.244Z,8.08
2018-12-27T01:11:21.259Z,8.05
2018-12-27T01:12:21.274Z,8
2018-12-27T01:13:21.291Z,7.95
2018-12-27T01:14:21.306Z,8.01
2018-12-27T01:16:21.398Z,8.07
2018-12-27T01:17:21.356Z,8.07
2018-12-27T01:18:21.372Z,8.2
2018-12-27T01:19:21.398Z,8.19
2018-12-27T01:20:21.408Z,8.1
2018-12-27T01:22:21.436Z,8.08
2018-12-27T01:23:21.455Z,8.05
2018-12-27T01:24:21.471Z,8.08
2018-12-27T01:25:21.486Z,8
2018-12-27T01:26:21.505Z,8.07
2018-12-27T01:27:21.521Z,8.11
2018-12-27T01:28:21.535Z,8.07
2018-12-27T01:29:21.557Z,8.12
2018-12-27T01:30:21.569Z,8.1
2018-12-27T01:31:21.592Z,8.15
2018-12-27T01:32:21.607Z,8.08
2018-12-27T01:33:23.777Z,8.04
2018-12-27T01:34:21.640Z,8.02
2018-12-27T01:35:21.657Z,8.02
2018-12-27T01:36:21.421Z,8
2018-12-27T01:37:36.348Z,8.02
2018-12-27T01:38:21.703Z,8.07
2018-12-27T01:39:21.718Z,8.01
2018-12-27T01:40:21.735Z,8.07
2018-12-27T01:42:21.776Z,8.11
2018-12-27T01:43:21.785Z,8.05
2018-12-27T01:44:21.799Z,8.07
2018-12-27T01:45:21.822Z,8.08
2018-12-27T01:46:21.833Z,8.12
2018-12-27T01:47:36.516Z,8.25
2018-12-27T01:48:21.868Z,8.16
2018-12-27T01:49:36.548Z,8.19
2018-12-27T01:50:21.901Z,8.16
2018-12-27T01:51:36.579Z,8.23
2018-12-27T01:52:22.050Z,8.08
2018-12-27T01:53:36.615Z,8.05
2018-12-27T01:54:21.965Z,8.07
2018-12-27T01:55:21.983Z,8.04
2018-12-27T01:56:22.004Z,8.07
2018-12-27T01:57:22.015Z,8.01
2018-12-27T01:58:22.036Z,8.07
2018-12-27T02:00:22.066Z,8.11
2018-12-27T02:01:22.082Z,8.11
2018-12-27T02:03:28.856Z,8.11
2018-12-27T02:04:22.133Z,8.11
2018-12-27T02:05:22.153Z,8.04
2018-12-27T02:06:22.165Z,8.01
2018-12-27T02:07:36.843Z,8.08
2018-12-27T02:08:22.201Z,8.05
2018-12-27T02:09:36.880Z,8
2018-12-27T02:10:22.230Z,8.04
2018-12-27T02:11:22.249Z,8.04
2018-12-27T02:12:22.261Z,8.04
2018-12-27T02:13:22.279Z,8.04
2018-12-27T02:14:22.296Z,8.1
2018-12-27T02:15:22.314Z,8.16
2018-12-27T02:18:22.361Z,8.08
2018-12-27T02:20:23.958Z,8.12
2018-12-27T02:21:22.411Z,8.23
2018-12-27T02:22:22.429Z,8.04
2018-12-27T02:23:22.445Z,8.07
2018-12-27T02:24:37.126Z,8.07
2018-12-27T02:25:22.479Z,8.01
2018-12-27T02:26:22.564Z,8.12
2018-12-27T02:27:22.511Z,8.07
2018-12-27T02:28:22.531Z,8
2018-12-27T02:29:22.545Z,8.1
2018-12-27T02:30:22.569Z,8.04
2018-12-27T02:31:22.578Z,8.04
2018-12-27T02:32:22.604Z,8.12
2018-12-27T02:33:37.278Z,8.02
2018-12-27T02:34:22.634Z,8.02
2018-12-27T02:35:22.644Z,8.02
2018-12-27T02:36:22.663Z,7.93
2018-12-27T02:37:22.679Z,8.04
2018-12-27T02:38:22.695Z,8
2018-12-27T02:39:22.714Z,7.97
2018-12-27T02:40:22.730Z,8
2018-12-27T02:41:22.743Z,8.08
2018-12-27T02:42:22.759Z,8.07
2018-12-27T02:43:22.780Z,8
2018-12-27T02:44:22.801Z,8.01
2018-12-27T02:45:22.812Z,8.01
2018-12-27T02:46:22.585Z,7.98
2018-12-27T02:47:22.844Z,7.98
2018-12-27T02:48:22.861Z,7.92
2018-12-27T02:50:22.895Z,8.04
2018-12-27T02:51:23.009Z,8
2018-12-27T02:52:22.931Z,8
2018-12-27T02:53:37.603Z,8
2018-12-27T02:54:22.967Z,8.04
2018-12-27T02:55:22.989Z,8.02
2018-12-27T02:56:37.657Z,8.01
2018-12-27T02:57:23.007Z,8.01
2018-12-27T02:58:23.040Z,8.08
2018-12-27T02:59:23.041Z,8.02
2018-12-27T03:00:23.057Z,8.02
2018-12-27T03:01:23.091Z,8.02
2018-12-27T03:02:23.088Z,8.05
2018-12-27T03:03:23.109Z,8.02
2018-12-27T03:05:23.141Z,8
2018-12-27T03:06:23.160Z,8.01
2018-12-27T03:07:23.222Z,7.97
2018-12-27T03:08:23.187Z,7.89
2018-12-27T03:09:23.206Z,8.05
2018-12-27T03:10:22.978Z,7.9
2018-12-27T03:11:23.240Z,7.83
2018-12-27T03:12:37.917Z,7.86
2018-12-27T03:13:23.270Z,7.79
2018-12-27T03:14:23.288Z,7.83
2018-12-27T03:15:23.312Z,7.86
2018-12-27T03:16:23.320Z,7.86
2018-12-27T03:17:23.337Z,7.86
2018-12-27T03:18:23.358Z,7.87
2018-12-27T03:19:23.371Z,7.86
2018-12-27T03:20:23.407Z,7.89
2018-12-27T03:22:23.420Z,7.9
2018-12-27T03:23:23.442Z,7.9
2018-12-27T03:24:23.461Z,7.79
2018-12-27T03:25:23.547Z,7.82
2018-12-27T03:26:23.497Z,7.85
2018-12-27T03:27:23.504Z,7.75
2018-12-27T03:28:38.185Z,7.79
2018-12-27T03:29:23.534Z,7.82
2018-12-27T03:30:23.565Z,7.8
2018-12-27T03:31:23.580Z,7.75
2018-12-27T03:32:23.595Z,7.83
2018-12-27T03:33:23.621Z,7.71
2018-12-27T03:34:23.624Z,7.8
2018-12-27T03:35:23.634Z,7.83
2018-12-27T03:36:23.676Z,7.86
2018-12-27T03:37:38.332Z,7.79
2018-12-27T03:38:23.681Z,7.74
2018-12-27T03:39:23.709Z,7.75
2018-12-27T03:40:23.729Z,7.69
2018-12-27T03:41:23.730Z,7.6
2018-12-27T03:42:23.748Z,7.69
2018-12-27T03:43:38.425Z,7.64
2018-12-27T03:44:38.443Z,7.61
2018-12-27T03:45:23.794Z,7.67
2018-12-27T03:46:23.811Z,7.72
2018-12-27T03:47:23.832Z,7.74
2018-12-27T03:49:23.860Z,7.61
2018-12-27T03:50:23.878Z,7.61
2018-12-27T03:51:23.903Z,7.55
2018-12-27T03:52:38.339Z,7.64
2018-12-27T03:53:23.931Z,7.61
2018-12-27T03:54:23.950Z,7.68
2018-12-27T03:55:23.969Z,7.6
2018-12-27T03:56:23.984Z,7.57
2018-12-27T03:57:23.998Z,7.58
2018-12-27T03:58:24.011Z,7.58
2018-12-27T03:59:38.688Z,7.64
2018-12-27T04:00:24.048Z,7.61
2018-12-27T04:01:24.106Z,7.68
2018-12-27T04:02:24.081Z,7.58
2018-12-27T04:03:24.099Z,7.72
2018-12-27T04:04:24.111Z,7.63
2018-12-27T04:05:24.124Z,7.64
2018-12-27T04:07:38.824Z,7.67
2018-12-27T04:08:24.170Z,7.61
2018-12-27T04:09:38.852Z,7.57
2018-12-27T04:10:24.210Z,7.68
2018-12-27T04:11:38.883Z,7.8
2018-12-27T04:12:24.233Z,7.8
2018-12-27T04:13:24.255Z,7.72
2018-12-27T04:14:24.275Z,7.8
2018-12-27T04:15:24.290Z,7.89
2018-12-27T04:16:24.300Z,7.85
2018-12-27T04:17:24.319Z,7.77
2018-12-27T04:18:24.335Z,7.8
2018-12-27T04:19:24.350Z,7.72
2018-12-27T04:20:24.378Z,7.89
2018-12-27T04:21:24.394Z,7.72
2018-12-27T04:22:24.402Z,7.69
2018-12-27T04:23:24.414Z,7.8
2018-12-27T04:24:24.439Z,7.82
2018-12-27T04:25:24.551Z,7.82
2018-12-27T04:26:24.466Z,7.89
2018-12-27T04:27:24.481Z,7.87
2018-12-27T04:28:39.159Z,7.8
2018-12-27T04:29:24.524Z,7.83
2018-12-27T04:30:24.532Z,7.79
2018-12-27T04:31:39.207Z,7.67
2018-12-27T04:32:24.564Z,7.71
2018-12-27T04:33:24.589Z,7.72
2018-12-27T04:34:24.597Z,7.64
2018-12-27T04:35:24.621Z,7.75
2018-12-27T04:36:24.630Z,7.58
2018-12-27T04:37:24.648Z,7.61
2018-12-27T04:38:24.667Z,7.68
2018-12-27T04:39:39.343Z,7.77
2018-12-27T04:40:24.693Z,7.58
2018-12-27T04:41:24.713Z,7.74
2018-12-27T04:42:24.725Z,7.79
2018-12-27T04:43:39.404Z,7.8
2018-12-27T04:44:24.771Z,7.8
2018-12-27T04:45:24.779Z,7.79
2018-12-27T04:46:24.803Z,7.8
2018-12-27T04:47:39.572Z,7.71
2018-12-27T04:48:24.576Z,7.69
2018-12-27T04:49:24.844Z,7.64
2018-12-27T04:51:24.873Z,7.71
2018-12-27T04:52:24.892Z,7.75
2018-12-27T04:53:24.905Z,7.83
2018-12-27T04:54:24.926Z,7.75
2018-12-27T04:55:24.937Z,7.63
2018-12-27T04:56:24.955Z,7.79
2018-12-27T04:57:24.975Z,7.77
2018-12-27T04:58:24.986Z,7.8
2018-12-27T04:59:25.003Z,7.63
2018-12-27T05:00:25.015Z,7.58
2018-12-27T05:01:25.033Z,7.6
2018-12-27T05:02:25.050Z,7.63
2018-12-27T05:03:39.739Z,7.6
2018-12-27T05:04:25.084Z,7.61
2018-12-27T05:05:25.098Z,7.63
2018-12-27T05:06:25.113Z,7.6
2018-12-27T05:07:25.177Z,7.63
2018-12-27T05:09:25.162Z,7.58
2018-12-27T05:10:25.182Z,7.68
2018-12-27T05:11:39.879Z,7.79
2018-12-27T05:12:25.223Z,7.77
2018-12-27T05:13:25.227Z,7.61
2018-12-27T05:14:25.250Z,7.68
2018-12-27T05:15:25.266Z,7.72
2018-12-27T05:16:25.285Z,7.68
2018-12-27T05:17:25.299Z,7.55
2018-12-27T05:18:25.312Z,7.6
2018-12-27T05:19:39.990Z,7.67
2018-12-27T05:20:25.340Z,7.57
2018-12-27T05:21:25.361Z,7.69
2018-12-27T05:22:25.376Z,7.64
2018-12-27T05:23:25.390Z,7.63
2018-12-27T05:24:25.408Z,7.58
2018-12-27T05:25:25.427Z,7.5
2018-12-27T05:26:25.447Z,7.63
2018-12-27T05:27:25.567Z,7.57
2018-12-27T05:28:25.479Z,7.6
2018-12-27T05:30:25.503Z,7.58
2018-12-27T05:31:40.182Z,7.6
2018-12-27T05:32:25.536Z,7.64
2018-12-27T05:33:25.556Z,7.46
2018-12-27T05:34:40.231Z,7.48
2018-12-27T05:35:25.584Z,7.52
2018-12-27T05:36:25.612Z,7.46
2018-12-27T05:37:25.631Z,7.52
2018-12-27T05:38:25.645Z,7.53
2018-12-27T05:39:25.648Z,7.53
2018-12-27T05:40:25.669Z,7.57
2018-12-27T05:41:25.687Z,7.57
2018-12-27T05:42:25.694Z,7.52
2018-12-27T05:43:25.715Z,7.52
2018-12-27T05:44:25.732Z,7.49
2018-12-27T05:45:40.409Z,7.58
2018-12-27T05:46:40.425Z,7.6
2018-12-27T05:47:25.779Z,7.53
2018-12-27T05:48:25.795Z,7.43
2018-12-27T05:49:25.812Z,7.5
2018-12-27T05:50:25.826Z,7.49
2018-12-27T05:51:25.844Z,7.46
2018-12-27T05:52:25.862Z,7.48
2018-12-27T05:53:25.873Z,7.5
2018-12-27T05:54:25.892Z,7.46
2018-12-27T05:55:25.905Z,7.4
2018-12-27T05:56:25.932Z,7.48
2018-12-27T05:57:25.941Z,7.46
2018-12-27T05:58:26.007Z,7.48
2018-12-27T05:59:25.977Z,7.4
2018-12-27T06:00:25.987Z,7.42
2018-12-27T06:01:25.753Z,7.46
2018-12-27T06:02:26.019Z,7.42
2018-12-27T06:03:26.034Z,7.4
2018-12-27T06:04:33.493Z,7.31
2018-12-27T06:05:26.067Z,7.2
2018-12-27T06:06:40.747Z,7.32
2018-12-27T06:07:26.098Z,7.34
2018-12-27T06:08:26.115Z,7.27
2018-12-27T06:09:26.134Z,7.31
2018-12-27T06:10:26.149Z,7.25
2018-12-27T06:12:26.178Z,7.24
2018-12-27T06:13:26.198Z,7.37
2018-12-27T06:14:26.214Z,7.32
2018-12-27T06:15:26.333Z,7.27
2018-12-27T06:16:26.245Z,7.28
2018-12-27T06:17:26.260Z,7.25
2018-12-27T06:18:26.282Z,7.24
2018-12-27T06:19:26.309Z,7.28
2018-12-27T06:20:40.968Z,7.23
2018-12-27T06:21:26.326Z,7.25
2018-12-27T06:22:41.004Z,7.28
2018-12-27T06:23:26.361Z,7.24
2018-12-27T06:24:26.378Z,7.24
2018-12-27T06:25:26.406Z,7.27
2018-12-27T06:26:26.404Z,7.3
2018-12-27T06:27:26.195Z,7.21
2018-12-27T06:28:26.435Z,7.13
2018-12-27T06:29:26.452Z,7.09
2018-12-27T06:30:26.475Z,7.27
2018-12-27T06:31:26.488Z,7.27
2018-12-27T06:32:26.508Z,7.27
2018-12-27T06:33:26.525Z,7.27
2018-12-27T06:34:26.531Z,7.25
2018-12-27T06:35:26.550Z,7.09
2018-12-27T06:36:26.564Z,7.13
2018-12-27T06:37:26.579Z,7.15
2018-12-27T06:39:26.617Z,7.09
2018-12-27T06:40:26.629Z,7.16
2018-12-27T06:41:26.663Z,7.05
2018-12-27T06:42:26.661Z,7.07
2018-12-27T06:43:26.679Z,6.98
2018-12-27T06:44:41.360Z,7.07
2018-12-27T06:45:26.713Z,7.12
2018-12-27T06:46:26.722Z,7.16
2018-12-27T06:48:26.755Z,6.98
2018-12-27T06:49:26.770Z,6.97
2018-12-27T06:50:26.789Z,6.88
2018-12-27T06:51:41.566Z,6.77
2018-12-27T06:52:26.828Z,6.94
2018-12-27T06:53:26.834Z,6.8
2018-12-27T06:54:41.511Z,6.74
2018-12-27T06:55:26.864Z,6.74
2018-12-27T06:56:26.883Z,6.77
2018-12-27T06:57:26.904Z,6.87
2018-12-27T06:58:26.913Z,6.85
2018-12-27T06:59:26.935Z,6.84
2018-12-27T07:00:26.943Z,6.91
2018-12-27T07:01:26.959Z,6.79
2018-12-27T07:02:26.977Z,6.71
2018-12-27T07:03:27.092Z,6.73
2018-12-27T07:04:27.008Z,6.79
2018-12-27T07:05:27.026Z,6.79
2018-12-27T07:07:27.063Z,6.77
2018-12-27T07:08:27.072Z,6.76
2018-12-27T07:09:41.752Z,6.8
2018-12-27T07:10:27.103Z,6.77
2018-12-27T07:11:27.119Z,6.84
2018-12-27T07:12:27.136Z,6.97
2018-12-27T07:13:27.149Z,6.87
2018-12-27T07:14:27.165Z,6.92
2018-12-27T07:15:27.181Z,6.95
2018-12-27T07:16:27.198Z,6.81
2018-12-27T07:17:27.212Z,6.7
2018-12-27T07:18:27.230Z,6.76
2018-12-27T07:19:27.247Z,6.73
2018-12-27T07:20:27.266Z,6.59
2018-12-27T07:21:27.276Z,6.44
2018-12-27T07:22:41.714Z,6.41
2018-12-27T07:23:27.067Z,6.31
2018-12-27T07:24:27.330Z,6.31
2018-12-27T07:25:27.338Z,6.31
2018-12-27T07:26:27.360Z,6.28
2018-12-27T07:27:27.367Z,6.25
2018-12-27T07:29:27.399Z,6.17
2018-12-27T07:30:27.420Z,6.17
2018-12-27T07:31:27.430Z,6.12
2018-12-27T07:32:27.452Z,6.17
2018-12-27T07:33:27.463Z,6.06
2018-12-27T07:36:27.513Z,6.09
2018-12-27T07:37:27.526Z,6.25
2018-12-27T07:38:27.542Z,6.19
2018-12-27T07:39:27.558Z,6.27
2018-12-27T07:40:27.571Z,6.34
2018-12-27T07:41:42.304Z,6.36
2018-12-27T07:42:27.604Z,6.46
2018-12-27T07:43:27.637Z,6.36
2018-12-27T07:44:27.634Z,6.31
2018-12-27T07:45:27.652Z,6.36
2018-12-27T07:46:27.670Z,6.41
2018-12-27T07:47:27.681Z,6.41
2018-12-27T07:48:27.699Z,6.48
2018-12-27T07:49:27.712Z,6.52
2018-12-27T07:50:27.732Z,6.44
2018-12-27T07:52:27.758Z,6.52
2018-12-27T07:53:27.774Z,6.59
2018-12-27T07:54:27.794Z,6.52
2018-12-27T07:55:27.808Z,6.43
2018-12-27T07:56:27.823Z,6.44
2018-12-27T07:57:42.501Z,6.54
2018-12-27T07:58:27.856Z,6.52
2018-12-27T07:59:27.872Z,6.64
2018-12-27T08:00:27.903Z,6.64
2018-12-27T08:01:27.898Z,6.58
2018-12-27T08:02:27.915Z,6.61
2018-12-27T08:03:27.929Z,6.7
2018-12-27T08:04:28.089Z,6.7
2018-12-27T08:05:28.012Z,6.66
2018-12-27T08:06:27.989Z,6.71
2018-12-27T08:07:42.658Z,6.77
2018-12-27T08:08:28.012Z,6.8
2018-12-27T08:09:42.689Z,6.76
2018-12-27T08:10:42.706Z,6.67
2018-12-27T08:11:28.057Z,6.7
2018-12-27T08:12:28.072Z,6.73
2018-12-27T08:13:42.754Z,6.73
2018-12-27T08:15:28.128Z,6.71
2018-12-27T08:16:28.138Z,6.71
2018-12-27T08:17:28.154Z,6.73
2018-12-27T08:18:28.170Z,6.7
2018-12-27T08:19:28.189Z,6.73
2018-12-27T08:20:28.199Z,6.76
2018-12-27T08:21:28.215Z,6.69
2018-12-27T08:24:28.270Z,6.74
2018-12-27T08:25:42.939Z,6.66
2018-12-27T08:26:42.954Z,6.74
2018-12-27T08:27:28.311Z,6.64
2018-12-27T08:28:28.324Z,6.76
2018-12-27T08:29:43.005Z,6.66
2018-12-27T08:30:28.357Z,6.73
2018-12-27T08:31:28.464Z,6.7
2018-12-27T08:32:28.387Z,6.69
2018-12-27T08:33:28.403Z,6.7
2018-12-27T08:34:28.423Z,6.7
2018-12-27T08:36:28.455Z,6.71
2018-12-27T08:37:28.467Z,6.73
2018-12-27T08:38:28.486Z,6.7
2018-12-27T08:39:28.502Z,6.74
2018-12-27T08:40:28.511Z,6.77
2018-12-27T08:41:28.279Z,6.73
2018-12-27T08:42:28.546Z,6.73
2018-12-27T08:43:28.564Z,6.7
2018-12-27T08:44:43.241Z,6.71
2018-12-27T08:45:28.591Z,6.64
2018-12-27T08:46:28.606Z,6.69
2018-12-27T08:47:28.622Z,6.7
2018-12-27T08:49:28.659Z,6.73
2018-12-27T08:50:28.667Z,6.79
2018-12-27T08:51:28.683Z,6.73
2018-12-27T08:52:28.699Z,6.73
2018-12-27T08:53:28.717Z,6.64
2018-12-27T08:54:29.551Z,6.69
2018-12-27T08:55:28.750Z,6.74
2018-12-27T08:56:28.766Z,6.76
2018-12-27T08:57:43.441Z,6.73
2018-12-27T08:58:28.793Z,6.74
2018-12-27T08:59:28.807Z,6.77
2018-12-27T09:00:28.829Z,6.76
2018-12-27T09:01:28.844Z,6.76
2018-12-27T09:02:28.860Z,6.71
2018-12-27T09:03:28.875Z,6.74
2018-12-27T09:04:28.889Z,6.69
2018-12-27T09:05:28.930Z,6.76
2018-12-27T09:06:28.917Z,6.71
2018-12-27T09:07:28.938Z,6.87
2018-12-27T09:08:28.949Z,6.74
2018-12-27T09:09:28.965Z,6.74
2018-12-27T09:10:28.982Z,6.74
2018-12-27T09:11:29.000Z,6.71
2018-12-27T09:12:43.677Z,6.73
2018-12-27T09:13:43.691Z,6.77
2018-12-27T09:14:29.042Z,6.71
2018-12-27T09:15:29.109Z,6.73
2018-12-27T09:16:43.738Z,6.74
2018-12-27T09:18:29.107Z,6.79
2018-12-27T09:19:29.135Z,6.81
2018-12-27T09:20:29.135Z,6.84
2018-12-27T09:21:29.151Z,6.91
2018-12-27T09:22:29.167Z,6.8
2018-12-27T09:23:29.182Z,6.76
2018-12-27T09:24:29.203Z,6.7
2018-12-27T09:25:29.219Z,6.7
2018-12-27T09:26:29.230Z,6.74
2018-12-27T09:27:29.248Z,6.74
2018-12-27T09:28:43.925Z,6.76
2018-12-27T09:29:29.278Z,6.73
2018-12-27T09:30:29.293Z,6.71
2018-12-27T09:31:29.309Z,6.71
2018-12-27T09:32:43.989Z,6.8
2018-12-27T09:33:29.340Z,6.81
2018-12-27T09:34:29.357Z,6.92
2018-12-27T09:35:31.302Z,6.8
2018-12-27T09:36:29.385Z,6.77
2018-12-27T09:37:29.413Z,6.74
2018-12-27T09:38:29.416Z,6.98
2018-12-27T09:39:29.434Z,6.92
2018-12-27T09:40:29.456Z,6.88
2018-12-27T09:41:29.469Z,6.81
2018-12-27T09:42:44.145Z,6.88
2018-12-27T09:43:29.500Z,6.85
2018-12-27T09:44:44.175Z,6.87
2018-12-27T09:45:29.530Z,6.88
2018-12-27T09:46:29.544Z,6.87
2018-12-27T09:47:29.561Z,6.88
2018-12-27T09:48:44.239Z,6.95
2018-12-27T09:49:29.593Z,6.79
2018-12-27T09:50:29.605Z,6.84
2018-12-27T09:51:29.621Z,6.97
2018-12-27T09:52:29.637Z,6.85
2018-12-27T09:53:29.652Z,6.76
2018-12-27T09:54:29.670Z,6.85
2018-12-27T09:55:29.689Z,6.99
2018-12-27T09:56:29.698Z,6.97
2018-12-27T09:57:29.715Z,6.89
2018-12-27T09:58:29.731Z,6.94
2018-12-27T09:59:29.753Z,6.91
2018-12-27T10:00:44.426Z,6.92
2018-12-27T10:01:29.782Z,6.88
2018-12-27T10:02:29.794Z,6.81
2018-12-27T10:03:29.809Z,6.79
2018-12-27T10:04:44.489Z,6.8
2018-12-27T10:05:36.178Z,6.85
2018-12-27T10:06:29.865Z,6.77
2018-12-27T10:07:29.873Z,6.85
2018-12-27T10:08:29.892Z,6.79
2018-12-27T10:09:29.906Z,6.81
2018-12-27T10:10:29.919Z,6.91
2018-12-27T10:11:29.934Z,6.97
2018-12-27T10:12:29.949Z,6.85
2018-12-27T10:14:29.981Z,6.84
2018-12-27T10:15:30.134Z,6.85
2018-12-27T10:16:30.016Z,6.98
2018-12-27T10:17:44.692Z,6.85
2018-12-27T10:18:30.045Z,6.94
2018-12-27T10:19:44.746Z,6.88
2018-12-27T10:20:30.078Z,6.94
2018-12-27T10:21:30.092Z,6.98
2018-12-27T10:22:30.114Z,6.92
2018-12-27T10:23:30.125Z,6.98
2018-12-27T10:24:30.141Z,6.99
2018-12-27T10:25:30.157Z,7.07
2018-12-27T10:27:30.192Z,7.07
2018-12-27T10:28:30.203Z,7.17
2018-12-27T10:29:30.492Z,7.06
2018-12-27T10:30:30.238Z,7.09
2018-12-27T10:31:44.914Z,7.1
2018-12-27T10:32:30.267Z,7.23
2018-12-27T10:33:30.282Z,7.09
2018-12-27T10:34:30.299Z,7.13
2018-12-27T10:35:30.412Z,7.1
2018-12-27T10:36:30.331Z,7.12
2018-12-27T10:37:30.352Z,7.17
2018-12-27T10:38:30.366Z,7.13
2018-12-27T10:39:30.383Z,7.2
2018-12-27T10:40:30.391Z,7.1
2018-12-27T10:41:30.408Z,7.15
2018-12-27T10:42:30.430Z,7.27
2018-12-27T10:43:30.440Z,7.23
2018-12-27T10:45:30.225Z,7.21
2018-12-27T10:46:30.487Z,7.2
2018-12-27T10:47:30.503Z,7.24
2018-12-27T10:48:30.530Z,7.24
2018-12-27T10:49:30.547Z,7.25
2018-12-27T10:50:30.550Z,7.23
2018-12-27T10:51:45.232Z,7.25
2018-12-27T10:52:30.583Z,7.23
2018-12-27T10:53:30.598Z,7.24
2018-12-27T10:55:30.631Z,7.13
2018-12-27T10:56:30.649Z,7.2
2018-12-27T10:57:30.663Z,7.12
2018-12-27T10:58:30.678Z,7.12
2018-12-27T11:00:30.714Z,7.16
2018-12-27T11:01:30.725Z,7.24
2018-12-27T11:02:30.744Z,7.23
2018-12-27T11:03:35.407Z,7.21
2018-12-27T11:04:45.436Z,7.23
2018-12-27T11:05:30.790Z,7.15
2018-12-27T11:06:30.805Z,7.12
2018-12-27T11:07:45.484Z,7.25
2018-12-27T11:08:30.938Z,7.23
2018-12-27T11:09:30.859Z,7.25
2018-12-27T11:10:30.872Z,7.28
2018-12-27T11:11:30.888Z,7.35
2018-12-27T11:12:30.905Z,7.37
2018-12-27T11:13:30.932Z,7.42
2018-12-27T11:14:30.932Z,7.46
2018-12-27T11:16:30.967Z,7.45
2018-12-27T11:17:30.978Z,7.48
2018-12-27T11:18:31.062Z,7.48
2018-12-27T11:19:31.014Z,7.6
2018-12-27T11:20:31.036Z,7.58
2018-12-27T11:21:31.051Z,7.52
2018-12-27T11:22:31.060Z,7.53
2018-12-27T11:23:45.739Z,7.63
2018-12-27T11:24:31.091Z,7.58
2018-12-27T11:25:31.108Z,7.63
2018-12-27T11:26:31.238Z,7.57
2018-12-27T11:27:31.139Z,7.58
2018-12-27T11:28:31.155Z,7.57
2018-12-27T11:29:31.173Z,7.58
2018-12-27T11:30:31.187Z,7.52
2018-12-27T11:31:31.211Z,7.52
2018-12-27T11:32:31.233Z,7.45
2018-12-27T11:33:31.242Z,7.48
2018-12-27T11:34:31.255Z,7.46
2018-12-27T11:35:31.269Z,7.39
2018-12-27T11:36:31.288Z,7.5
2018-12-27T11:37:31.302Z,7.53
2018-12-27T11:38:31.322Z,7.42
2018-12-27T11:39:45.999Z,7.48
2018-12-27T11:40:31.351Z,7.49
2018-12-27T11:41:31.416Z,7.5
2018-12-27T11:42:31.387Z,7.57
2018-12-27T11:43:31.397Z,7.55
2018-12-27T11:44:31.416Z,7.52
2018-12-27T11:45:31.428Z,7.55
2018-12-27T11:46:31.502Z,7.63
2018-12-27T11:47:31.461Z,7.53
2018-12-27T11:48:31.480Z,7.48
2018-12-27T11:49:31.495Z,7.48
2018-12-27T11:50:31.509Z,7.53
2018-12-27T11:51:31.525Z,7.48
2018-12-27T11:52:46.205Z,7.52
2018-12-27T11:53:31.559Z,7.49
2018-12-27T11:54:46.288Z,7.48
2018-12-27T11:55:31.591Z,7.45
2018-12-27T11:56:31.609Z,7.64
2018-12-27T11:57:31.625Z,7.46
2018-12-27T11:58:31.639Z,7.45
2018-12-27T11:59:31.656Z,7.58
2018-12-27T12:00:31.670Z,7.6
2018-12-27T12:01:31.740Z,7.6
2018-12-27T12:02:36.026Z,7.55
2018-12-27T12:03:31.721Z,7.67
2018-12-27T12:04:31.750Z,7.68
2018-12-27T12:05:31.756Z,7.67
2018-12-27T12:06:31.771Z,7.72
2018-12-27T12:07:31.794Z,7.57
2018-12-27T12:08:31.804Z,7.58
2018-12-27T12:09:31.816Z,7.58
2018-12-27T12:10:31.837Z,7.61
2018-12-27T12:11:31.851Z,7.58
2018-12-27T12:12:31.864Z,7.61
2018-12-27T12:13:31.979Z,7.6
2018-12-27T12:14:31.896Z,7.67
2018-12-27T12:15:31.913Z,7.69
2018-12-27T12:16:31.927Z,7.61
2018-12-27T12:17:31.944Z,7.58
2018-12-27T12:18:31.961Z,7.6
2018-12-27T12:19:46.642Z,7.61
2018-12-27T12:20:31.991Z,7.5
2018-12-27T12:21:31.761Z,7.61
2018-12-27T12:22:32.032Z,7.6
2018-12-27T12:23:32.045Z,7.53
2018-12-27T12:24:32.100Z,7.52
2018-12-27T12:25:32.071Z,7.52
2018-12-27T12:26:46.753Z,7.63
2018-12-27T12:27:32.104Z,7.5
2018-12-27T12:28:32.130Z,7.49
2018-12-27T12:29:32.137Z,7.5
2018-12-27T12:30:32.159Z,7.53
2018-12-27T12:31:32.170Z,7.52
2018-12-27T12:32:32.186Z,7.5
2018-12-27T12:33:31.953Z,7.5
2018-12-27T12:34:32.219Z,7.57
2018-12-27T12:36:32.303Z,7.52
2018-12-27T12:38:32.282Z,7.5
2018-12-27T12:39:46.961Z,7.49
2018-12-27T12:40:32.320Z,7.64
2018-12-27T12:41:32.330Z,7.57
2018-12-27T12:42:47.009Z,7.52
2018-12-27T12:43:32.362Z,7.57
2018-12-27T12:44:32.379Z,7.5
2018-12-27T12:45:32.394Z,7.53
2018-12-27T12:46:32.412Z,7.4
2018-12-27T12:47:32.424Z,7.35
2018-12-27T12:48:32.442Z,7.48
2018-12-27T12:49:32.509Z,7.52
2018-12-27T12:50:32.474Z,7.5
2018-12-27T12:51:32.493Z,7.48
2018-12-27T12:52:32.508Z,7.52
2018-12-27T12:53:32.522Z,7.5
2018-12-27T12:54:47.203Z,7.48
2018-12-27T12:55:32.553Z,7.5
2018-12-27T12:56:32.576Z,7.5
2018-12-27T12:57:32.588Z,7.52
2018-12-27T12:58:47.266Z,7.45
2018-12-27T12:59:32.619Z,7.43
2018-12-27T13:00:32.634Z,7.48
2018-12-27T13:01:32.654Z,7.52
2018-12-27T13:02:32.667Z,7.52
2018-12-27T13:03:32.683Z,7.5
2018-12-27T13:04:32.451Z,7.48
2018-12-27T13:05:32.715Z,7.45
2018-12-27T13:06:32.734Z,7.5
2018-12-27T13:07:32.755Z,7.57
2018-12-27T13:08:32.766Z,7.69
2018-12-27T13:09:32.780Z,7.57
2018-12-27T13:10:32.794Z,7.63
2018-12-27T13:11:32.812Z,7.55
2018-12-27T13:12:32.879Z,7.53
2018-12-27T13:13:32.848Z,7.61
2018-12-27T13:14:47.522Z,7.58
2018-12-27T13:15:32.637Z,7.63
2018-12-27T13:16:32.896Z,7.48
2018-12-27T13:17:32.909Z,7.57
2018-12-27T13:18:32.929Z,7.61
2018-12-27T13:19:32.940Z,7.58
2018-12-27T13:20:32.959Z,7.64
2018-12-27T13:22:32.993Z,7.63
2018-12-27T13:25:33.041Z,7.53
2018-12-27T13:26:33.053Z,7.61
2018-12-27T13:27:33.091Z,7.49
2018-12-27T13:28:33.341Z,7.43
2018-12-27T13:29:47.765Z,7.5
2018-12-27T13:30:33.119Z,7.5
2018-12-27T13:31:33.136Z,7.58
2018-12-27T13:32:33.195Z,7.6
2018-12-27T13:33:33.174Z,7.48
2018-12-27T13:34:33.756Z,7.52
2018-12-27T13:35:33.201Z,7.48
2018-12-27T13:37:33.240Z,7.53
2018-12-27T13:38:33.248Z,7.42
2018-12-27T13:39:33.269Z,7.48
2018-12-27T13:40:33.278Z,7.57
2018-12-27T13:41:33.301Z,7.53
2018-12-27T13:42:33.309Z,7.53
2018-12-27T13:43:33.326Z,7.53
2018-12-27T13:44:33.345Z,7.53
2018-12-27T13:45:33.358Z,7.5
2018-12-27T13:46:33.374Z,7.58
2018-12-27T13:47:33.393Z,7.49
2018-12-27T13:48:33.409Z,7.49
2018-12-27T13:49:33.421Z,7.49
2018-12-27T13:50:33.438Z,7.49
2018-12-27T13:51:33.459Z,7.53
2018-12-27T13:52:33.474Z,7.49
2018-12-27T13:53:33.492Z,7.45
2018-12-27T13:55:33.522Z,7.45
2018-12-27T13:56:33.543Z,7.45
2018-12-27T13:57:33.553Z,7.49
2018-12-27T13:58:33.572Z,7.53
2018-12-27T13:59:33.585Z,7.5
2018-12-27T14:00:33.599Z,7.49
2018-12-27T14:01:48.279Z,7.5
2018-12-27T14:02:33.635Z,7.55
2018-12-27T14:03:33.647Z,7.48
2018-12-27T14:04:33.666Z,7.58
2018-12-27T14:05:33.679Z,7.6
2018-12-27T14:06:37.550Z,7.6
2018-12-27T14:07:33.714Z,7.6
2018-12-27T14:08:33.730Z,7.42
2018-12-27T14:09:33.744Z,7.42
2018-12-27T14:11:33.785Z,7.53
2018-12-27T14:12:33.792Z,7.49
2018-12-27T14:13:33.808Z,7.52